createdAt,value
2022-10-31T00:00:55.452Z,51.72
2022-10-31T00:01:55.365Z,50.11
2022-10-31T00:02:55.335Z,56.72
2022-10-31T00:03:55.304Z,63.16
2022-10-31T00:04:55.300Z,56.88
2022-10-31T00:05:55.302Z,47.53
2022-10-31T00:06:55.267Z,57.69
2022-10-31T00:07:55.257Z,47.70
2022-10-31T00:08:55.236Z,53.82
2022-10-31T00:09:55.276Z,61.07
2022-10-31T00:10:55.220Z,62.36
2022-10-31T00:11:55.250Z,59.62
2022-10-31T00:12:55.188Z,56.40
2022-10-31T00:13:55.194Z,51.88
2022-10-31T00:14:55.161Z,53.17
2022-10-31T00:15:55.145Z,62.68
2022-10-31T00:16:55.191Z,55.91
2022-10-31T00:17:55.118Z,64.94
2022-10-31T00:18:55.114Z,63.65
2022-10-31T00:19:55.110Z,51.72
2022-10-31T00:20:55.091Z,41.73
2022-10-31T00:21:55.070Z,55.27
2022-10-31T00:22:55.076Z,59.46
2022-10-31T00:23:55.046Z,49.15
2022-10-31T00:24:55.030Z,59.62
2022-10-31T00:25:55.031Z,61.55
2022-10-31T00:26:55.034Z,55.11
2022-10-31T00:27:54.988Z,55.11
2022-10-31T00:28:54.991Z,51.40
2022-10-31T00:29:54.976Z,51.72
2022-10-31T00:30:54.948Z,42.22
2022-10-31T00:31:54.942Z,40.77
2022-10-31T00:32:54.957Z,43.67
2022-10-31T00:33:54.923Z,54.46
2022-10-31T00:34:54.929Z,54.95
2022-10-31T00:35:54.909Z,47.70
2022-10-31T00:36:54.872Z,62.20
2022-10-31T00:37:54.863Z,55.91
2022-10-31T00:38:54.870Z,50.27
2022-10-31T00:39:54.846Z,60.91
2022-10-31T00:40:54.864Z,60.42
2022-10-31T00:41:54.822Z,53.17
2022-10-31T00:42:54.825Z,42.38
2022-10-31T00:43:54.789Z,51.88
2022-10-31T00:44:54.785Z,56.40
2022-10-31T00:45:54.766Z,42.86
2022-10-31T00:46:54.798Z,54.30
2022-10-31T00:47:54.743Z,62.20
2022-10-31T00:48:54.723Z,44.47
2022-10-31T00:49:54.727Z,61.71
2022-10-31T00:50:54.697Z,41.25
2022-10-31T00:51:54.693Z,56.88
2022-10-31T00:52:54.701Z,55.91
2022-10-31T00:53:54.714Z,47.05
2022-10-31T00:54:54.649Z,57.36
2022-10-31T00:55:54.638Z,54.30
2022-10-31T00:56:54.653Z,60.10
2022-10-31T00:57:54.662Z,49.47
2022-10-31T00:58:54.607Z,55.75
2022-10-31T00:59:54.609Z,48.18
2022-10-31T01:00:54.630Z,45.44
2022-10-31T01:01:54.785Z,53.82
2022-10-31T01:02:54.549Z,63.16
2022-10-31T01:04:00.550Z,49.15
2022-10-31T01:04:54.512Z,55.59
2022-10-31T01:05:54.516Z,52.21
2022-10-31T01:06:54.521Z,53.66
2022-10-31T01:07:54.479Z,56.24
2022-10-31T01:08:54.473Z,58.17
2022-10-31T01:09:54.460Z,42.86
2022-10-31T01:10:54.481Z,55.11
2022-10-31T01:11:54.432Z,45.92
2022-10-31T01:12:54.427Z,42.70
2022-10-31T01:13:54.449Z,51.88
2022-10-31T01:14:54.387Z,53.01
2022-10-31T01:15:54.382Z,41.89
2022-10-31T01:16:54.429Z,54.95
2022-10-31T01:17:54.363Z,44.96
2022-10-31T01:18:54.337Z,58.65
2022-10-31T01:19:54.347Z,49.47
2022-10-31T01:20:54.349Z,60.59
2022-10-31T01:21:54.330Z,47.70
2022-10-31T01:22:54.296Z,47.05
2022-10-31T01:23:54.273Z,49.15
2022-10-31T01:24:54.267Z,58.01
2022-10-31T01:25:54.260Z,53.82
2022-10-31T01:26:54.255Z,52.37
2022-10-31T01:27:54.231Z,42.86
2022-10-31T01:28:54.203Z,47.86
2022-10-31T01:29:54.196Z,41.89
2022-10-31T01:30:54.183Z,59.14
2022-10-31T01:31:54.163Z,56.72
2022-10-31T01:32:54.157Z,51.72
2022-10-31T01:33:54.145Z,44.47
2022-10-31T01:34:54.134Z,41.09
2022-10-31T01:35:54.113Z,58.65
2022-10-31T01:36:54.128Z,59.14
2022-10-31T01:37:54.106Z,49.15
2022-10-31T01:38:54.074Z,53.33
2022-10-31T01:39:54.124Z,64.13
2022-10-31T01:40:54.046Z,52.69
2022-10-31T01:41:54.060Z,41.41
2022-10-31T01:42:54.055Z,43.51
2022-10-31T01:43:54.053Z,46.08
2022-10-31T01:44:54.007Z,44.15
2022-10-31T01:45:54.008Z,43.51
2022-10-31T01:46:54.017Z,44.63
2022-10-31T01:47:53.963Z,46.89
2022-10-31T01:48:53.978Z,58.49
2022-10-31T01:49:53.933Z,41.57
2022-10-31T01:50:53.933Z,42.38
2022-10-31T01:51:53.916Z,41.89
2022-10-31T01:52:53.890Z,60.10
2022-10-31T01:53:53.891Z,63.16
2022-10-31T01:54:53.868Z,45.44
2022-10-31T01:55:53.860Z,48.82
2022-10-31T01:56:53.920Z,46.25
2022-10-31T01:57:53.853Z,47.70
2022-10-31T01:58:53.826Z,45.60
2022-10-31T01:59:53.808Z,46.41
2022-10-31T02:00:53.822Z,45.60
2022-10-31T02:01:53.909Z,48.82
2022-10-31T02:02:53.767Z,50.76
2022-10-31T02:03:53.754Z,41.73
2022-10-31T02:04:53.766Z,41.25
2022-10-31T02:05:53.724Z,44.96
2022-10-31T02:06:53.724Z,47.53
2022-10-31T02:07:53.701Z,57.04
2022-10-31T02:08:53.686Z,49.15
2022-10-31T02:09:53.689Z,50.60
2022-10-31T02:10:53.678Z,57.04
2022-10-31T02:11:53.651Z,38.99
2022-10-31T02:12:53.662Z,47.70
2022-10-31T02:13:53.619Z,55.59
2022-10-31T02:14:53.605Z,39.48
2022-10-31T02:15:53.645Z,50.27
2022-10-31T02:16:53.583Z,58.97
2022-10-31T02:17:53.570Z,41.57
2022-10-31T02:18:53.554Z,44.15
2022-10-31T02:19:53.573Z,48.82
2022-10-31T02:20:53.533Z,53.82
2022-10-31T02:21:53.549Z,59.62
2022-10-31T02:22:53.520Z,55.91
2022-10-31T02:23:53.524Z,46.89
2022-10-31T02:24:53.493Z,46.73
2022-10-31T02:25:53.469Z,52.37
2022-10-31T02:26:53.490Z,50.11
2022-10-31T02:27:53.478Z,48.02
2022-10-31T02:28:53.434Z,53.33
2022-10-31T02:29:53.411Z,59.14
2022-10-31T02:30:53.409Z,49.47
2022-10-31T02:31:53.394Z,53.98
2022-10-31T02:32:53.385Z,56.72
2022-10-31T02:33:53.376Z,43.34
2022-10-31T02:34:53.368Z,57.04
2022-10-31T02:35:53.344Z,63.16
2022-10-31T02:36:53.325Z,39.16
2022-10-31T02:37:53.312Z,42.86
2022-10-31T02:38:53.299Z,50.27
2022-10-31T02:39:53.300Z,48.66
2022-10-31T02:40:53.278Z,42.06
2022-10-31T02:41:53.263Z,40.93
2022-10-31T02:42:53.333Z,55.75
2022-10-31T02:43:53.233Z,55.43
2022-10-31T02:44:53.272Z,43.34
2022-10-31T02:45:53.221Z,44.15
2022-10-31T02:46:53.203Z,40.12
2022-10-31T02:47:53.185Z,42.86
2022-10-31T02:48:53.212Z,48.02
2022-10-31T02:49:53.161Z,47.53
2022-10-31T02:50:53.153Z,48.50
2022-10-31T02:51:53.148Z,61.07
2022-10-31T02:52:53.127Z,52.53
2022-10-31T02:53:53.112Z,55.43
2022-10-31T02:54:53.097Z,43.67
2022-10-31T02:55:53.119Z,43.99
2022-10-31T02:56:53.069Z,43.51
2022-10-31T02:57:53.074Z,40.93
2022-10-31T02:58:53.052Z,40.93
2022-10-31T02:59:53.064Z,48.34
2022-10-31T03:00:53.218Z,50.27
2022-10-31T03:01:53.207Z,41.57
2022-10-31T03:02:53.015Z,42.38
2022-10-31T03:03:52.997Z,40.44
2022-10-31T03:04:52.965Z,51.72
2022-10-31T03:05:52.960Z,46.57
2022-10-31T03:06:52.950Z,52.05
2022-10-31T03:07:52.929Z,42.38
2022-10-31T03:08:52.923Z,54.95
2022-10-31T03:09:52.915Z,46.73
2022-10-31T03:10:52.900Z,52.85
2022-10-31T03:11:52.885Z,58.33
2022-10-31T03:12:52.869Z,56.56
2022-10-31T03:13:52.855Z,61.23
2022-10-31T03:14:52.899Z,46.89
2022-10-31T03:15:52.841Z,60.59
2022-10-31T03:16:52.839Z,52.53
2022-10-31T03:17:52.806Z,56.56
2022-10-31T03:18:52.791Z,44.96
2022-10-31T03:19:52.781Z,46.89
2022-10-31T03:20:52.771Z,42.86
2022-10-31T03:21:52.763Z,45.28
2022-10-31T03:22:52.757Z,61.55
2022-10-31T03:23:52.734Z,56.72
2022-10-31T03:24:52.713Z,44.96
2022-10-31T03:25:52.706Z,56.24
2022-10-31T03:26:52.695Z,51.24
2022-10-31T03:27:52.687Z,42.54
2022-10-31T03:28:52.668Z,49.31
2022-10-31T03:29:52.655Z,49.63
2022-10-31T03:30:52.638Z,47.53
2022-10-31T03:31:52.627Z,61.87
2022-10-31T03:32:52.659Z,51.56
2022-10-31T03:33:52.612Z,52.21
2022-10-31T03:34:52.590Z,61.07
2022-10-31T03:35:52.584Z,46.25
2022-10-31T03:36:52.562Z,43.99
2022-10-31T03:37:52.551Z,45.60
2022-10-31T03:38:52.539Z,56.72
2022-10-31T03:39:52.543Z,50.76
2022-10-31T03:40:52.511Z,54.79
2022-10-31T03:41:52.505Z,61.87
2022-10-31T03:42:52.494Z,48.02
2022-10-31T03:43:52.483Z,59.14
2022-10-31T03:44:52.460Z,58.81
2022-10-31T03:45:52.459Z,50.76
2022-10-31T03:46:52.441Z,46.41
2022-10-31T03:47:52.424Z,63.16
2022-10-31T03:48:52.428Z,53.82
2022-10-31T03:49:52.397Z,46.73
2022-10-31T03:50:52.393Z,55.91
2022-10-31T03:51:52.390Z,49.15
2022-10-31T03:52:52.365Z,63.65
2022-10-31T03:53:52.344Z,58.17
2022-10-31T03:54:52.339Z,45.60
2022-10-31T03:55:52.365Z,50.76
2022-10-31T03:56:52.303Z,53.66
2022-10-31T03:57:52.317Z,57.36
2022-10-31T03:58:52.283Z,66.55
2022-10-31T03:59:52.303Z,54.62
2022-10-31T04:00:52.258Z,64.29
2022-10-31T04:01:52.441Z,49.95
2022-10-31T04:02:52.236Z,57.04
2022-10-31T04:03:52.239Z,54.95
2022-10-31T04:04:52.202Z,44.96
2022-10-31T04:05:52.193Z,46.89
2022-10-31T04:06:52.180Z,65.26
2022-10-31T04:07:52.224Z,62.68
2022-10-31T04:08:52.189Z,53.50
2022-10-31T04:09:52.163Z,66.06
2022-10-31T04:10:52.142Z,48.02
2022-10-31T04:11:52.137Z,59.62
2022-10-31T04:12:52.115Z,58.49
2022-10-31T04:13:52.100Z,48.50
2022-10-31T04:14:52.073Z,50.27
2022-10-31T04:15:52.075Z,61.07
2022-10-31T04:16:52.070Z,62.20
2022-10-31T04:17:52.033Z,54.14
2022-10-31T04:18:52.049Z,56.07
2022-10-31T04:19:52.023Z,58.33
2022-10-31T04:20:51.997Z,53.66
2022-10-31T04:21:52.007Z,62.20
2022-10-31T04:22:51.972Z,57.20
2022-10-31T04:23:51.959Z,55.59
2022-10-31T04:24:51.950Z,58.65
2022-10-31T04:25:51.930Z,61.07
2022-10-31T04:26:51.979Z,58.49
2022-10-31T04:27:51.920Z,61.55
2022-10-31T04:28:51.893Z,55.75
2022-10-31T04:29:51.896Z,68.64
2022-10-31T04:30:51.877Z,62.68
2022-10-31T04:31:51.865Z,62.52
2022-10-31T04:32:51.844Z,60.42
2022-10-31T04:33:52.084Z,63.65
2022-10-31T04:34:51.818Z,59.62
2022-10-31T04:35:51.805Z,58.97
2022-10-31T04:36:51.811Z,65.42
2022-10-31T04:37:51.779Z,60.10
2022-10-31T04:38:51.782Z,66.06
2022-10-31T04:39:51.786Z,63.65
2022-10-31T04:40:51.752Z,58.81
2022-10-31T04:41:51.731Z,58.01
2022-10-31T04:42:51.716Z,63.33
2022-10-31T04:43:51.699Z,58.01
2022-10-31T04:44:51.696Z,62.36
2022-10-31T04:45:51.789Z,57.04
2022-10-31T04:46:51.674Z,50.60
2022-10-31T04:47:51.670Z,61.39
2022-10-31T04:48:51.642Z,61.71
2022-10-31T04:49:51.655Z,57.52
2022-10-31T04:50:51.622Z,67.03
2022-10-31T04:51:51.638Z,65.74
2022-10-31T04:52:51.599Z,55.27
2022-10-31T04:53:51.570Z,61.71
2022-10-31T04:54:51.621Z,61.07
2022-10-31T04:55:51.722Z,58.65
2022-10-31T04:56:51.563Z,63.65
2022-10-31T04:57:51.532Z,62.36
2022-10-31T04:58:51.510Z,60.91
2022-10-31T04:59:51.504Z,63.97
2022-10-31T05:00:51.566Z,53.50
2022-10-31T05:01:51.601Z,58.81
2022-10-31T05:02:51.501Z,63.16
2022-10-31T05:03:51.468Z,60.75
2022-10-31T05:04:51.443Z,60.91
2022-10-31T05:05:51.441Z,65.74
2022-10-31T05:06:51.415Z,62.04
2022-10-31T05:07:51.409Z,55.11
2022-10-31T05:08:51.402Z,62.04
2022-10-31T05:09:51.377Z,65.26
2022-10-31T05:10:51.370Z,59.78
2022-10-31T05:11:51.357Z,56.88
2022-10-31T05:12:51.336Z,74.28
2022-10-31T05:13:51.332Z,58.49
2022-10-31T05:14:51.302Z,60.75
2022-10-31T05:15:51.307Z,60.91
2022-10-31T05:16:51.288Z,70.09
2022-10-31T05:17:51.288Z,66.06
2022-10-31T05:18:51.254Z,72.19
2022-10-31T05:19:51.268Z,60.10
2022-10-31T05:20:51.230Z,62.68
2022-10-31T05:21:51.235Z,65.74
2022-10-31T05:22:51.233Z,60.42
2022-10-31T05:23:51.259Z,68.00
2022-10-31T05:24:51.174Z,68.64
2022-10-31T05:25:51.197Z,66.55
2022-10-31T05:26:51.152Z,66.39
2022-10-31T05:27:51.158Z,68.96
2022-10-31T05:28:51.126Z,61.87
2022-10-31T05:29:51.144Z,63.65
2022-10-31T05:30:51.107Z,64.94
2022-10-31T05:31:51.085Z,63.65
2022-10-31T05:32:51.084Z,67.35
2022-10-31T05:33:51.088Z,71.06
2022-10-31T05:34:51.054Z,63.16
2022-10-31T05:35:51.035Z,63.33
2022-10-31T05:36:51.029Z,67.84
2022-10-31T05:37:51.005Z,66.71
2022-10-31T05:38:50.999Z,64.13
2022-10-31T05:39:50.956Z,66.06
2022-10-31T05:40:50.967Z,60.42
2022-10-31T05:41:50.954Z,63.97
2022-10-31T05:42:50.947Z,63.00
2022-10-31T05:43:50.890Z,62.52
2022-10-31T05:44:50.863Z,68.00
2022-10-31T05:45:50.870Z,63.16
2022-10-31T05:46:50.903Z,64.13
2022-10-31T05:47:50.882Z,65.90
2022-10-31T05:48:50.841Z,66.55
2022-10-31T05:49:50.808Z,65.42
2022-10-31T05:50:50.835Z,69.13
2022-10-31T05:51:50.800Z,68.32
2022-10-31T05:52:50.773Z,61.07
2022-10-31T05:53:50.752Z,63.97
2022-10-31T05:54:50.743Z,66.55
2022-10-31T05:55:50.729Z,68.64
2022-10-31T05:56:50.718Z,65.10
2022-10-31T05:57:50.706Z,67.03
2022-10-31T05:58:50.679Z,67.19
2022-10-31T05:59:54.756Z,70.09
2022-10-31T06:00:50.661Z,69.29
2022-10-31T06:01:50.812Z,67.51
2022-10-31T06:02:50.630Z,65.10
2022-10-31T06:03:50.754Z,68.16
2022-10-31T06:04:50.715Z,67.03
2022-10-31T06:05:54.956Z,69.61
2022-10-31T06:06:50.675Z,66.55
2022-10-31T06:07:50.565Z,63.97
2022-10-31T06:08:50.589Z,64.61
2022-10-31T06:09:50.554Z,65.58
2022-10-31T06:10:50.542Z,64.94
2022-10-31T06:11:50.519Z,68.00
2022-10-31T06:12:50.504Z,70.42
2022-10-31T06:13:50.502Z,70.58
2022-10-31T06:14:50.483Z,67.68
2022-10-31T06:15:50.518Z,66.71
2022-10-31T06:16:50.448Z,63.81
2022-10-31T06:18:05.185Z,65.74
2022-10-31T06:18:50.428Z,66.71
2022-10-31T06:20:50.626Z,66.23
2022-10-31T06:21:50.416Z,66.71
2022-10-31T06:22:56.433Z,64.13
2022-10-31T06:23:50.369Z,67.68
2022-10-31T06:24:56.385Z,65.90
2022-10-31T06:25:50.341Z,66.55
2022-10-31T06:26:56.879Z,65.90
2022-10-31T06:27:50.308Z,69.29
2022-10-31T06:28:50.295Z,65.26
2022-10-31T06:29:50.283Z,67.84
2022-10-31T06:30:50.326Z,69.29
2022-10-31T06:31:50.279Z,61.87
2022-10-31T06:32:50.302Z,64.29
2022-10-31T06:33:50.294Z,72.67
2022-10-31T06:34:50.212Z,70.09
2022-10-31T06:35:50.202Z,70.09
2022-10-31T06:36:56.751Z,68.96
2022-10-31T06:37:50.551Z,62.20
2022-10-31T06:38:50.178Z,69.93
2022-10-31T06:39:50.151Z,64.29
2022-10-31T06:40:50.153Z,65.26
2022-10-31T06:41:50.127Z,67.35
2022-10-31T06:42:50.132Z,66.23
2022-10-31T06:43:50.106Z,69.13
2022-10-31T06:44:50.132Z,68.48
2022-10-31T06:45:50.094Z,72.83
2022-10-31T06:46:50.071Z,63.65
2022-10-31T06:48:15.024Z,67.35
2022-10-31T06:48:50.064Z,71.06
2022-10-31T06:49:50.031Z,70.25
2022-10-31T06:50:50.042Z,66.87
2022-10-31T06:51:50.021Z,71.22
2022-10-31T06:52:49.993Z,68.16
2022-10-31T06:53:49.975Z,71.54
2022-10-31T06:54:49.978Z,71.38
2022-10-31T06:55:49.958Z,66.87
2022-10-31T06:56:49.954Z,70.90
2022-10-31T06:57:49.936Z,67.84
2022-10-31T06:58:49.918Z,61.39
2022-10-31T06:59:49.918Z,67.19
2022-10-31T07:00:49.914Z,70.90
2022-10-31T07:01:50.003Z,63.97
2022-10-31T07:02:49.865Z,63.16
2022-10-31T07:03:49.852Z,65.74
2022-10-31T07:04:49.836Z,65.74
2022-10-31T07:05:49.818Z,68.96
2022-10-31T07:06:51.946Z,69.61
2022-10-31T07:07:49.795Z,67.03
2022-10-31T07:08:49.800Z,64.94
2022-10-31T07:09:49.764Z,66.55
2022-10-31T07:10:49.771Z,65.26
2022-10-31T07:11:49.743Z,72.67
2022-10-31T07:12:49.741Z,64.29
2022-10-31T07:13:49.718Z,68.96
2022-10-31T07:14:49.823Z,68.80
2022-10-31T07:15:49.748Z,69.61
2022-10-31T07:16:49.684Z,69.29
2022-10-31T07:17:49.672Z,70.90
2022-10-31T07:18:49.695Z,69.29
2022-10-31T07:19:49.740Z,68.64
2022-10-31T07:20:49.701Z,69.77
2022-10-31T07:21:49.617Z,68.80
2022-10-31T07:22:59.130Z,69.13
2022-10-31T07:23:49.604Z,71.70
2022-10-31T07:24:49.575Z,65.90
2022-10-31T07:25:49.567Z,67.84
2022-10-31T07:26:49.865Z,66.71
2022-10-31T07:27:49.571Z,69.45
2022-10-31T07:28:49.524Z,63.81
2022-10-31T07:29:49.530Z,67.35
2022-10-31T07:30:49.517Z,66.39
2022-10-31T07:31:49.581Z,65.58
2022-10-31T07:32:49.528Z,65.42
2022-10-31T07:33:49.485Z,68.32
2022-10-31T07:34:49.449Z,69.77
2022-10-31T07:35:49.452Z,69.61
2022-10-31T07:36:49.445Z,69.13
2022-10-31T07:37:49.414Z,62.20
2022-10-31T07:38:49.474Z,66.23
2022-10-31T07:39:49.385Z,68.48
2022-10-31T07:40:49.375Z,64.78
2022-10-31T07:41:49.374Z,67.51
2022-10-31T07:42:49.343Z,70.42
2022-10-31T07:43:49.735Z,64.94
2022-10-31T07:44:51.501Z,68.80
2022-10-31T07:45:49.318Z,70.42
2022-10-31T07:46:49.302Z,66.39
2022-10-31T07:47:49.280Z,69.13
2022-10-31T07:48:49.283Z,66.71
2022-10-31T07:49:49.256Z,67.35
2022-10-31T07:50:49.275Z,72.19
2022-10-31T07:51:49.248Z,66.23
2022-10-31T07:52:49.232Z,69.13
2022-10-31T07:53:49.216Z,69.93
2022-10-31T07:54:49.226Z,67.68
2022-10-31T07:55:49.177Z,68.32
2022-10-31T07:56:49.213Z,68.64
2022-10-31T07:57:49.182Z,68.96
2022-10-31T07:58:49.148Z,63.33
2022-10-31T07:59:49.147Z,72.19
2022-10-31T08:00:49.395Z,67.84
2022-10-31T08:01:49.101Z,69.61
2022-10-31T08:02:49.105Z,70.09
2022-10-31T08:03:49.100Z,67.51
2022-10-31T08:04:49.084Z,66.71
2022-10-31T08:05:49.051Z,68.64
2022-10-31T08:06:49.045Z,69.29
2022-10-31T08:07:49.041Z,62.20
2022-10-31T08:08:49.054Z,69.13
2022-10-31T08:09:49.008Z,67.68
2022-10-31T08:10:48.995Z,68.80
2022-10-31T08:11:48.983Z,69.13
2022-10-31T08:12:48.972Z,70.74
2022-10-31T08:13:48.949Z,69.93
2022-10-31T08:14:48.964Z,70.09
2022-10-31T08:15:48.936Z,69.93
2022-10-31T08:16:48.946Z,70.58
2022-10-31T08:17:48.905Z,68.48
2022-10-31T08:18:48.895Z,62.84
2022-10-31T08:19:48.889Z,64.78
2022-10-31T08:20:48.892Z,66.39
2022-10-31T08:21:48.856Z,70.58
2022-10-31T08:22:48.868Z,63.49
2022-10-31T08:23:48.843Z,70.09
2022-10-31T08:24:48.814Z,70.90
2022-10-31T08:25:48.794Z,65.26
2022-10-31T08:26:48.811Z,67.03
2022-10-31T08:27:48.774Z,65.90
2022-10-31T08:28:48.771Z,64.78
2022-10-31T08:29:48.749Z,67.03
2022-10-31T08:30:48.789Z,69.61
2022-10-31T08:31:48.722Z,67.68
2022-10-31T08:32:48.728Z,69.13
2022-10-31T08:33:48.699Z,65.74
2022-10-31T08:34:48.719Z,67.51
2022-10-31T08:35:48.706Z,69.13
2022-10-31T08:36:48.652Z,71.87
2022-10-31T08:37:48.642Z,68.64
2022-10-31T08:38:48.665Z,69.13
2022-10-31T08:39:48.628Z,69.61
2022-10-31T08:40:48.630Z,65.58
2022-10-31T08:41:48.600Z,69.13
2022-10-31T08:42:48.587Z,69.29
2022-10-31T08:43:48.570Z,68.64
2022-10-31T08:44:48.592Z,65.42
2022-10-31T08:45:48.544Z,68.80
2022-10-31T08:46:48.531Z,68.00
2022-10-31T08:47:48.521Z,68.32
2022-10-31T08:48:48.517Z,68.96
2022-10-31T08:49:48.522Z,68.96
2022-10-31T08:50:48.492Z,71.38
2022-10-31T08:51:48.478Z,72.19
2022-10-31T08:53:04.200Z,68.00
2022-10-31T08:53:48.447Z,64.29
2022-10-31T08:54:48.704Z,70.58
2022-10-31T08:55:48.435Z,65.74
2022-10-31T08:56:48.417Z,67.35
2022-10-31T08:57:48.398Z,70.74
2022-10-31T08:58:48.383Z,69.13
2022-10-31T08:59:48.383Z,70.42
2022-10-31T09:00:48.419Z,66.55
2022-10-31T09:01:48.399Z,67.19
2022-10-31T09:02:48.346Z,69.93
2022-10-31T09:03:48.322Z,68.64
2022-10-31T09:04:48.308Z,67.19
2022-10-31T09:05:48.322Z,67.84
2022-10-31T09:07:19.594Z,69.13
2022-10-31T09:07:48.311Z,68.48
2022-10-31T09:08:48.275Z,67.35
2022-10-31T09:09:48.268Z,69.13
2022-10-31T09:10:48.219Z,68.00
2022-10-31T09:11:48.219Z,64.94
2022-10-31T09:12:48.192Z,71.06
2022-10-31T09:13:48.191Z,67.03
2022-10-31T09:14:48.196Z,67.19
2022-10-31T09:15:48.190Z,66.55
2022-10-31T09:16:48.158Z,62.20
2022-10-31T09:17:48.128Z,65.58
2022-10-31T09:18:48.137Z,67.03
2022-10-31T09:19:48.105Z,64.61
2022-10-31T09:20:48.113Z,68.16
2022-10-31T09:21:48.094Z,67.51
2022-10-31T09:22:48.077Z,70.58
2022-10-31T09:23:48.065Z,66.87
2022-10-31T09:24:48.051Z,70.74
2022-10-31T09:25:50.631Z,67.03
2022-10-31T09:26:48.046Z,61.39
2022-10-31T09:27:48.005Z,70.09
2022-10-31T09:28:48.006Z,69.93
2022-10-31T09:29:47.981Z,66.71
2022-10-31T09:30:47.965Z,68.00
2022-10-31T09:31:47.950Z,69.29
2022-10-31T09:32:47.986Z,67.19
2022-10-31T09:33:47.925Z,73.32
2022-10-31T09:34:47.913Z,67.35
2022-10-31T09:35:47.917Z,69.29
2022-10-31T09:36:47.883Z,67.51
2022-10-31T09:37:47.877Z,69.45
2022-10-31T09:38:47.881Z,70.09
2022-10-31T09:39:47.850Z,70.90
2022-10-31T09:40:47.831Z,68.48
2022-10-31T09:41:48.614Z,62.84
2022-10-31T09:42:47.813Z,74.44
2022-10-31T09:43:47.796Z,67.35
2022-10-31T09:44:47.816Z,67.35
2022-10-31T09:45:47.767Z,67.51
2022-10-31T09:46:58.271Z,66.39
2022-10-31T09:47:47.744Z,68.00
2022-10-31T09:48:47.723Z,68.00
2022-10-31T09:49:47.880Z,65.26
2022-10-31T09:50:47.740Z,66.06
2022-10-31T09:51:52.669Z,69.13
2022-10-31T09:52:47.683Z,69.29
2022-10-31T09:53:47.666Z,67.68
2022-10-31T09:54:47.651Z,68.64
2022-10-31T09:55:47.651Z,64.61
2022-10-31T09:56:54.189Z,65.90
2022-10-31T09:57:47.611Z,75.09
2022-10-31T09:58:47.609Z,63.33
2022-10-31T09:59:47.591Z,69.61
2022-10-31T10:00:47.650Z,68.80
2022-10-31T10:01:47.649Z,68.32
2022-10-31T10:02:47.577Z,67.35
2022-10-31T10:03:47.558Z,67.51
2022-10-31T10:04:47.529Z,70.09
2022-10-31T10:05:47.509Z,68.16
2022-10-31T10:06:54.012Z,69.61
2022-10-31T10:07:47.487Z,69.61
2022-10-31T10:08:47.494Z,62.68
2022-10-31T10:09:47.461Z,67.84
2022-10-31T10:10:47.452Z,65.58
2022-10-31T10:11:47.438Z,65.74
2022-10-31T10:12:47.436Z,66.87
2022-10-31T10:13:47.415Z,71.22
2022-10-31T10:14:47.432Z,63.97
2022-10-31T10:15:47.390Z,67.84
2022-10-31T10:16:47.388Z,66.39
2022-10-31T10:17:47.374Z,64.29
2022-10-31T10:18:47.359Z,73.48
2022-10-31T10:19:47.340Z,69.29
2022-10-31T10:20:47.424Z,65.74
2022-10-31T10:21:53.837Z,68.32
2022-10-31T10:22:47.309Z,64.78
2022-10-31T10:23:47.477Z,65.90
2022-10-31T10:24:47.331Z,70.42
2022-10-31T10:25:47.319Z,63.16
2022-10-31T10:26:47.306Z,66.23
2022-10-31T10:27:53.794Z,69.61
2022-10-31T10:28:47.250Z,66.87
2022-10-31T10:29:47.241Z,64.45
2022-10-31T10:30:47.228Z,68.32
2022-10-31T10:31:47.180Z,67.68
2022-10-31T10:32:50.956Z,67.03
2022-10-31T10:33:47.183Z,67.35
2022-10-31T10:34:47.173Z,71.54
2022-10-31T10:35:47.177Z,66.55
2022-10-31T10:36:47.122Z,67.03
2022-10-31T10:37:47.123Z,67.84
2022-10-31T10:38:47.139Z,70.09
2022-10-31T10:39:47.088Z,69.93
2022-10-31T10:40:47.104Z,66.87
2022-10-31T10:41:47.048Z,68.32
2022-10-31T10:42:47.063Z,67.84
2022-10-31T10:44:47.044Z,66.39
2022-10-31T10:45:47.023Z,66.55
2022-10-31T10:46:47.028Z,67.35
2022-10-31T10:47:46.993Z,66.55
2022-10-31T10:48:46.966Z,69.61
2022-10-31T10:49:46.947Z,68.80
2022-10-31T10:50:46.975Z,66.71
2022-10-31T10:52:19.366Z,68.00
2022-10-31T10:52:50.557Z,65.58
2022-10-31T10:53:46.907Z,67.03
2022-10-31T10:54:46.899Z,68.00
2022-10-31T10:55:46.881Z,65.26
2022-10-31T10:56:46.886Z,66.71
2022-10-31T10:57:46.956Z,69.13
2022-10-31T10:58:46.835Z,64.61
2022-10-31T10:59:46.828Z,68.64
2022-10-31T11:00:46.985Z,71.70
2022-10-31T11:01:46.801Z,68.00
2022-10-31T11:02:48.939Z,67.84
2022-10-31T11:03:46.769Z,68.32
2022-10-31T11:04:46.766Z,69.61
2022-10-31T11:05:46.750Z,67.68
2022-10-31T11:06:46.730Z,61.87
2022-10-31T11:07:46.718Z,68.64
2022-10-31T11:08:46.768Z,66.87
2022-10-31T11:09:46.691Z,70.09
2022-10-31T11:10:46.699Z,70.09
2022-10-31T11:11:46.684Z,67.19
2022-10-31T11:12:46.650Z,70.42
2022-10-31T11:13:46.642Z,66.55
2022-10-31T11:14:46.651Z,61.71
2022-10-31T11:15:46.635Z,69.29
2022-10-31T11:16:46.601Z,70.90
2022-10-31T11:17:46.583Z,66.06
2022-10-31T11:18:46.588Z,69.13
2022-10-31T11:19:46.592Z,63.16
2022-10-31T11:20:46.589Z,67.51
2022-10-31T11:21:51.208Z,72.99
2022-10-31T11:22:46.531Z,70.42
2022-10-31T11:23:46.511Z,68.48
2022-10-31T11:24:46.520Z,71.38
2022-10-31T11:25:46.484Z,67.51
2022-10-31T11:26:46.501Z,68.48
2022-10-31T11:27:46.478Z,70.74
2022-10-31T11:28:46.446Z,65.74
2022-10-31T11:29:46.433Z,68.64
2022-10-31T11:30:46.428Z,68.32
2022-10-31T11:31:46.419Z,70.09
2022-10-31T11:32:46.428Z,67.19
2022-10-31T11:33:46.409Z,69.45
2022-10-31T11:34:46.372Z,68.00
2022-10-31T11:35:46.358Z,65.58
2022-10-31T11:36:46.349Z,69.13
2022-10-31T11:37:46.330Z,68.48
2022-10-31T11:38:46.348Z,67.03
2022-10-31T11:39:46.348Z,69.61
2022-10-31T11:40:46.293Z,67.03
2022-10-31T11:41:46.314Z,66.55
2022-10-31T11:42:46.302Z,65.42
2022-10-31T11:43:46.366Z,68.32
2022-10-31T11:44:46.268Z,68.64
2022-10-31T11:45:46.283Z,68.00
2022-10-31T11:46:46.222Z,65.10
2022-10-31T11:47:46.211Z,69.29
2022-10-31T11:48:46.245Z,67.51
2022-10-31T11:49:46.174Z,65.10
2022-10-31T11:50:46.189Z,64.13
2022-10-31T11:51:46.151Z,69.61
2022-10-31T11:52:46.192Z,67.51
2022-10-31T11:53:46.224Z,62.52
2022-10-31T11:54:46.113Z,68.48
2022-10-31T11:55:46.154Z,66.55
2022-10-31T11:56:46.137Z,62.84
2022-10-31T11:57:46.071Z,70.58
2022-10-31T11:58:46.274Z,66.06
2022-10-31T11:59:46.050Z,66.71
2022-10-31T12:00:46.057Z,64.78
2022-10-31T12:01:46.099Z,67.84
2022-10-31T12:02:46.135Z,69.45
2022-10-31T12:03:45.999Z,65.42
2022-10-31T12:04:45.984Z,69.61
2022-10-31T12:05:45.986Z,66.06
2022-10-31T12:06:45.963Z,68.80
2022-10-31T12:07:46.058Z,68.00
2022-10-31T12:08:45.958Z,63.97
2022-10-31T12:09:45.931Z,67.35
2022-10-31T12:10:45.986Z,70.09
2022-10-31T12:11:45.898Z,71.54
2022-10-31T12:12:45.899Z,67.51
2022-10-31T12:13:45.875Z,65.74
2022-10-31T12:14:45.891Z,62.68
2022-10-31T12:15:45.879Z,66.39
2022-10-31T12:16:45.845Z,68.00
2022-10-31T12:17:45.894Z,68.64
2022-10-31T12:18:45.817Z,66.87
2022-10-31T12:19:45.833Z,66.87
2022-10-31T12:20:45.808Z,65.74
2022-10-31T12:21:45.787Z,65.90
2022-10-31T12:22:45.753Z,68.64
2022-10-31T12:23:45.760Z,66.55
2022-10-31T12:24:45.731Z,65.74
2022-10-31T12:25:45.714Z,68.32
2022-10-31T12:26:45.742Z,64.13
2022-10-31T12:27:45.698Z,64.78
2022-10-31T12:28:46.329Z,68.80
2022-10-31T12:29:45.673Z,66.87
2022-10-31T12:30:45.678Z,68.16
2022-10-31T12:31:45.672Z,69.93
2022-10-31T12:32:45.651Z,65.26
2022-10-31T12:33:45.615Z,67.03
2022-10-31T12:34:48.998Z,68.00
2022-10-31T12:35:45.602Z,65.90
2022-10-31T12:36:45.585Z,67.51
2022-10-31T12:37:45.576Z,62.84
2022-10-31T12:38:45.618Z,65.58
2022-10-31T12:39:45.579Z,67.84
2022-10-31T12:40:45.556Z,66.06
2022-10-31T12:41:45.519Z,68.32
2022-10-31T12:42:45.508Z,67.03
2022-10-31T12:43:45.501Z,68.32
2022-10-31T12:44:45.516Z,65.26
2022-10-31T12:45:45.475Z,66.23
2022-10-31T12:46:45.457Z,69.13
2022-10-31T12:47:45.438Z,74.60
2022-10-31T12:48:45.460Z,68.00
2022-10-31T12:49:45.423Z,65.90
2022-10-31T12:50:45.469Z,67.03
2022-10-31T12:51:45.393Z,66.39
2022-10-31T12:52:45.372Z,65.42
2022-10-31T12:53:45.376Z,66.55
2022-10-31T12:54:47.873Z,67.03